Holtsville, NY (00501)

1:16 PM EST on November 24, 2014 (GMT -0500)
Farmingville | Change Station
CLOSE
Current Station
Personal Weather Station
Location: Farmingville, NY
Elevation: 150 ft
Nearby Weather Stations

Elev 150 ft 40.83 °N, 73.06 °W | Updated 16 minutes ago

Fog
Fog
59.5 °F
Feels Like 59.5 °F
N
4.0
Wind Variable Wind from SSE
Gusts 7.0 mph

Today
High -- | Low -- °F
--% Chance of Precip.
Yesterday
High -- | Low -- °F
Precip. -- in
6:49 AM 4:27 PM
Waxing Crescent, 6% visible
Pressure 29.64 in
Visibility 0.2 miles
Clouds
Dew Point 58 °F
Humidity 95%
Rainfall 0.89 in
Snow Depth Not available.
UV Not available.
Pollen .10 out of 12
Air Quality Not available.
Flu Activity Not available.
METAR KISP 241756Z 20014G23KT 1/4SM R06/1800V2600FT FG VV002 16/15 A2964 RMK AO2 PK WND 20026/1737 DZB02E55 SLP036 P0000 60014 T01560150 10161 20150 58016

More Conditions Fewer Conditions

Pressure 29.64 in
Visibility 0.2 miles
Clouds
Dew Point 58 °F
Humidity 95%
Rainfall 0.89 in
Snow Depth Not available.
UV Not available.
Pollen .10 out of 12
Air Quality Not available.
Flu Activity Not available.
METAR KISP 241756Z 20014G23KT 1/4SM R06/1800V2600FT FG VV002 16/15 A2964 RMK AO2 PK WND 20026/1737 DZB02E55 SLP036 P0000 60014 T01560150 10161 20150 58016

More Conditions Fewer Conditions

10-Day Weather Forecast

Almanac

Astronomy

Nov. 24, 2014 Rise Set
Actual Time
Civil Twilight
Nautical Twilight
Astronomical Twilight
Moon
Length of Visible Light
Length of Day
Tomorrow will be .
, % of the Moon is Illuminated

Today's Extremes

State Highs State Lows

Community

WunderPhotos

Upload Photos

1,773,385 photos uploaded!

WunderBlogs® & News

Nearby

Air Quality

  Air Quality AQ Index Pollutant
Not available.

Snow Depth

Station Depth Elevation

Earthquake Activity

City Distance Mag. Time & Date
Minimum magnitude displayed is 2.5.

Coastal Water Temperatures

Place Temperature

Nearby Weather Stations